27 maja 2022

Czas Kod Pogoda Temp. Widoczność Sufit Wiatr METAR/SPECI
7:25 pm
V
59 °F 6¼ mi+ - 290° 290° 9 - 20 kt METAR EHVK 271725Z AUTO 29009G20KT 250V340 9999 FEW042 15/04 Q1022 BLU
6:55 pm
V
59 °F 6¼ mi+ 4.200 ft 310° 310° 8 kt METAR EHVK 271655Z AUTO 31008KT 240V340 9999 BKN042 BKN049 15/05 Q1022 BLU
6:25 pm
V
59 °F 6¼ mi+ - 290° 290° 9 kt METAR EHVK 271625Z AUTO 29009KT 240V330 9999 FEW051 15/05 Q1022 BLU
5:55 pm
V
59 °F 6¼ mi+ 5.100 ft 290° 290° 10 kt METAR EHVK 271555Z AUTO 29010KT 250V350 9999 SCT044 BKN051 15/04 Q1022 BLU
5:25 pm
V
61 °F 6¼ mi+ 4.400 ft 320° 320° 9 - 19 kt METAR EHVK 271525Z AUTO 32009G19KT 260V350 9999 BKN044 16/05 Q1022 BLU
4:55 pm
V
61 °F 6¼ mi+ 4.400 ft 300° 300° 10 kt METAR EHVK 271455Z AUTO 30010KT 250V350 9999 BKN044 16/05 Q1022 BLU
4:25 pm
V
63 °F 6¼ mi+ - 290° 290° 11 kt METAR EHVK 271425Z AUTO 29011KT 280V010 9999 SCT046 17/05 Q1022 BLU
3:55 pm
V
63 °F 6¼ mi+ - 300° 300° 9 kt METAR EHVK 271355Z AUTO 30009KT 250V360 9999 SCT048 17/05 Q1021 BLU
3:25 pm
V
63 °F 6¼ mi+ - 290° 290° 10 kt METAR EHVK 271325Z AUTO 29010KT 250V340 9999 SCT040 17/06 Q1021 BLU
2:55 pm
V
63 °F 6¼ mi+ 4.000 ft 300° 300° 11 - 21 kt METAR EHVK 271255Z AUTO 30011G21KT 250V340 9999 BKN040 BKN045 BKN053 17/07 Q1021 BLU
2:25 pm
V
63 °F 6¼ mi+ 4.500 ft 270° 270° 12 kt METAR EHVK 271225Z AUTO 27012KT 220V330 9999 BKN045 17/06 Q1021 BLU
1:55 pm
V
61 °F 6¼ mi+ 4.500 ft 290° 290° 10 kt METAR EHVK 271155Z AUTO 29010KT 230V360 9999 BKN045 BKN051 16/06 Q1021 BLU
1:25 pm
V
63 °F 6¼ mi+ 4.800 ft 290° 290° 10 kt METAR EHVK 271125Z AUTO 29010KT 250V340 9999 SCT043 BKN048 17/06 Q1021 BLU
12:55 pm
V
63 °F 6¼ mi+ 4.900 ft 280° 280° 13 kt METAR EHVK 271055Z AUTO 28013KT 230V330 9999 SCT044 BKN049 BKN054 17/06 Q1021 BLU
12:25 pm
V
63 °F 6¼ mi+ - 280° 280° 10 - 20 kt METAR EHVK 271025Z AUTO 28010G20KT 220V330 9999 FEW038 SCT043 17/08 Q1021 BLU
11:55 am
V
61 °F 6¼ mi+ - 290° 290° 9 kt METAR EHVK 270955Z AUTO 29009KT 240V340 9999 FEW038 16/07 Q1021 BLU
11:25 am
V
63 °F 6¼ mi+ - 300° 300° 9 kt METAR EHVK 270925Z AUTO 30009KT 260V360 9999 FEW045 SCT049 17/07 Q1021 BLU
10:55 am
V
59 °F 6¼ mi+ 3.200 ft 300° 300° 7 kt METAR EHVK 270855Z AUTO 30007KT 270V350 9999 BKN032 OVC039 15/08 Q1021 BLU
10:25 am
V
61 °F 6¼ mi+ 6.100 ft 290° 290° 8 - 18 kt METAR EHVK 270825Z AUTO 29008G18KT 250V330 9999 SCT035 SCT044 BKN061 16/09 Q1020 BLU
9:55 am
V
59 °F 6¼ mi+ 3.400 ft 290° 290° 7 kt METAR EHVK 270755Z AUTO 29007KT 250V350 9999 BKN034 BKN041 15/08 Q1020 BLU
9:25 am
V
59 °F 6¼ mi+ 36.000 ft 290° 290° 7 kt METAR EHVK 270725Z AUTO 29007KT 260V350 9999 FEW026 OVC360 15/10 Q1020 BLU
8:55 am
V
59 °F 6¼ mi+ 37.000 ft 280° 280° 6 kt METAR EHVK 270655Z AUTO 28006KT 250V340 9999 FEW020 OVC370 15/12 Q1020 BLU
8:25 am
V
57 °F 6¼ mi+ 4.200 ft 270° 270° 6 kt METAR EHVK 270625Z AUTO 27006KT 240V320 9999 BKN042 OVC048 14/12 Q1020 BLU
7:55 am
V
57 °F 6¼ mi+ 4.400 ft 270° 270° 6 kt METAR EHVK 270555Z AUTO 27006KT 240V300 9999 OVC044 14/13 Q1020 BLU
7:25 am
V
57 °F 6¼ mi+ 33.000 ft 250° 250° 5 kt METAR EHVK 270525Z AUTO 25005KT 220V290 9999 FEW014 BKN330 14/13 Q1019 BLU
7:12 am
V
57 °F 6¼ mi+ - 250° 250° 6 kt METAR EHVK 270512Z AUTO 25006KT 220V280 9999 FEW014 SCT350 14/13 Q1019 BLU
6:55 am
M
57 °F 6¼ mi+ 2.100 ft 240° 240° 5 kt METAR EHVK 270455Z AUTO 24005KT 210V270 9999 FEW015 SCT018 BKN021 14/13 Q1019 WHT
6:32 am
V
55 °F 6¼ mi+ 5.200 ft 250° 250° 4 kt METAR EHVK 270432Z AUTO 25004KT 9999 FEW016 SCT038 BKN052 13/12 Q1019 BLU
6:25 am
M
55 °F 6¼ mi+ 2.200 ft 250° 250° 5 kt METAR EHVK 270425Z AUTO 25005KT 9999 FEW018 BKN022 OVC055 13/12 Q1019 WHT
6:18 am
V
55 °F 6¼ mi+ 5.500 ft 240° 240° 5 kt METAR EHVK 270418Z AUTO 24005KT 220V280 9999 FEW019 SCT023 OVC055 13/12 Q1019 WHT
5:55 am
V
55 °F 6¼ mi+ 4.000 ft 250° 250° 5 kt METAR EHVK 270355Z AUTO 25005KT 9999 FEW033 BKN040 OVC044 13/12 Q1019 REDZ BLU
5:31 am
V
55 °F 6¼ mi+ 4.200 ft 240° 240° 6 kt METAR EHVK 270331Z AUTO 24006KT 210V270 9999 DZ BKN042 OVC047 13/12 Q1019 BLU
5:25 am
M
55 °F 3¾ mi 4.200 ft 240° 240° 6 kt METAR EHVK 270325Z AUTO 24006KT 210V270 6000 DZRA FEW027 SCT036 OVC042 13/12 Q1019 REDZ WHT
5:13 am
V
55 °F 6¼ mi+ 3.800 ft 240° 240° 6 kt METAR EHVK 270313Z AUTO 24006KT 210V270 9999 -RA FEW015CB BKN038 OVC043 13/12 Q1019 BLU
5:08 am
I
55 °F 2¾ mi 3.700 ft 240° 240° 5 kt METAR EHVK 270308Z AUTO 24005KT 4500 -RA FEW025 OVC037 13/12 Q1019 GRN
4:55 am
V
55 °F 6¼ mi+ 3.200 ft 250° 250° 5 kt METAR EHVK 270255Z AUTO 25005KT 220V290 9999 -SHRA -DZ FEW023 OVC032 13/12 Q1019 REDZ BLU
4:33 am
M
55 °F 3¾ mi 3.500 ft 270° 270° 6 kt METAR EHVK 270233Z AUTO 27006KT 230V340 6000 -SHRA DZ FEW015CB SCT028 OVC035 13/12 Q1019 WHT
4:27 am
I
55 °F 2¾ mi 3.400 ft 280° 280° 6 kt METAR EHVK 270227Z AUTO 28006KT 240V340 4400 -SHRA +DZ FEW015CB OVC034 13/12 Q1019 GRN
4:25 am
M
55 °F 3¾ mi 3.300 ft 280° 280° 6 kt METAR EHVK 270225Z AUTO 28006KT 240V320 6000 -RADZ FEW005 FEW015CB SCT026 OVC033 13/12 Q1019 RERA WHT
4:14 am
I
55 °F 3⅛ mi 500 ft 300° 300° 5 kt METAR EHVK 270214Z AUTO 30005KT 260V360 5000 SHRA FEW004 BKN005 BKN007 FEW015CB 13/13 Q1019 YLO
4:07 am
I
55 °F 3¾ mi 800 ft 290° 290° 7 kt METAR EHVK 270207Z AUTO 29007KT 210V360 6000 SHRA +DZ FEW005 SCT006 BKN008 FEW015CB 13/13 Q1019 YLO
3:56 am
I
55 °F 2¼ mi 1.400 ft 250° 250° 10 kt METAR EHVK 270156Z AUTO 25010KT 210V280 3700 +DZ FEW006 SCT009 BKN014 FEW015CB 13/13 Q1019 GRN
3:55 am
I
57 °F 2⅛ mi 1.300 ft 240° 240° 11 kt METAR EHVK 270155Z AUTO 24011KT 210V270 3500 +DZRA FEW007 SCT010 BKN013 FEW015CB 14/12 Q1019 YLO
3:42 am
I
57 °F 2 mi 1.400 ft 240° 240° 11 kt METAR EHVK 270142Z AUTO 24011KT 210V270 3200 -SHRA +DZ FEW007 SCT012 BKN014 FEW015CB 14/12 Q1019 YLO
3:35 am
I
57 °F 1⅞ mi 1.500 ft 240° 240° 10 kt METAR EHVK 270135Z AUTO 24010KT 210V270 3000 +DZ FEW007 SCT013 BKN015 14/12 Q1019 YLO
3:34 am
I
57 °F 2⅜ mi 1.400 ft 240° 240° 10 kt METAR EHVK 270134Z AUTO 24010KT 210V270 3900 +DZ FEW007 BKN014 OVC017 14/12 Q1019 GRN
3:27 am
I
57 °F 2⅞ mi 1.500 ft 240° 240° 10 kt METAR EHVK 270127Z AUTO 24010KT 210V270 4600 DZ FEW007 OVC015 14/12 Q1019 GRN
3:25 am
M
57 °F 5⅝ mi 1.500 ft 250° 250° 11 kt METAR EHVK 270125Z AUTO 25011KT 210V280 9000 -DZ OVC015 14/12 Q1019 REDZ WHT
3:06 am
M
59 °F 3¾ mi 1.600 ft 250° 250° 11 kt METAR EHVK 270106Z AUTO 25011KT 190V280 6000 -RA BKN016 OVC020 15/11 Q1019 WHT
2:55 am
M
59 °F 6¼ mi+ 1.800 ft 240° 240° 13 kt METAR EHVK 270055Z AUTO 24013KT 210V280 9999 FEW010 BKN018 OVC021 15/11 Q1019 WHT
2:25 am
M
59 °F 6¼ mi+ 1.800 ft 240° 240° 13 kt METAR EHVK 270025Z AUTO 24013KT 210V280 9999 BKN018 BKN021 OVC025 15/11 Q1019 WHT
1:55 am
M
59 °F 6¼ mi+ 1.900 ft 240° 240° 13 kt METAR EHVK 262355Z AUTO 24013KT 210V280 9999 BKN019 BKN030 OVC045 15/11 Q1019 WHT
1:43 am
M
59 °F 6¼ mi+ 2.700 ft 240° 240° 13 kt METAR EHVK 262343Z AUTO 24013KT 210V270 9999 SCT019 BKN027 BKN033 15/11 Q1019 WHT
1:34 am
M
59 °F 6¼ mi+ 2.800 ft 240° 240° 13 kt METAR EHVK 262334Z AUTO 24013KT 210V270 9999 SCT019 SCT023 BKN028 15/11 Q1020 WHT
1:25 am
M
59 °F 6¼ mi+ 1.900 ft 240° 240° 13 kt METAR EHVK 262325Z AUTO 24013KT 200V270 9999 BKN019 BKN027 OVC035 15/11 Q1020 WHT
1:15 am
M
59 °F 6¼ mi+ 1.900 ft 240° 240° 13 kt METAR EHVK 262315Z AUTO 24013KT 200V290 9999 BKN019 BKN022 BKN027 15/11 Q1020 WHT
1:14 am
M
59 °F 6¼ mi+ 2.900 ft 240° 240° 13 kt METAR EHVK 262314Z AUTO 24013KT 210V290 9999 SCT019 BKN029 OVC057 15/11 Q1020 WHT
1:08 am
V
59 °F 6¼ mi+ 5.500 ft 240° 240° 13 kt METAR EHVK 262308Z AUTO 24013KT 190V280 9999 SCT019 SCT029 OVC055 15/11 Q1020 WHT
12:55 am
M
59 °F 6¼ mi+ 1.900 ft 240° 240° 14 kt METAR EHVK 262255Z AUTO 24014KT 200V280 9999 BKN019 BKN033 BKN040 15/11 Q1020 WHT
12:25 am
M
59 °F 6¼ mi+ 2.000 ft 240° 240° 14 kt METAR EHVK 262225Z AUTO 24014KT 210V270 9999 BKN020 OVC033 15/11 Q1020 WHT
12:10 am
M
61 °F 6¼ mi+ 2.400 ft 240° 240° 13 kt METAR EHVK 262210Z AUTO 24013KT 220V280 9999 SCT021 BKN024 BKN030 16/11 Q1020 WHT
12:02 am
V
61 °F 6¼ mi+ 3.200 ft 240° 240° 13 kt METAR EHVK 262202Z AUTO 24013KT 200V280 9999 FEW021 BKN032 BKN036 16/11 Q1020 BLU

26 maja 2022

Czas Kod Pogoda Temp. Widoczność Sufit Wiatr METAR/SPECI
11:55 pm
M
61 °F 6¼ mi+ 2.100 ft 240° 240° 13 kt METAR EHVK 262155Z AUTO 24013KT 200V270 9999 BKN021 OVC032 16/11 Q1020 WHT
11:51 pm
M
61 °F 6¼ mi+ 2.500 ft 240° 240° 14 kt METAR EHVK 262151Z AUTO 24014KT 200V280 9999 SCT021 BKN025 BKN034 16/11 Q1020 WHT
11:43 pm
V
61 °F 6¼ mi+ 5.000 ft 240° 240° 13 kt METAR EHVK 262143Z AUTO 24013KT 210V280 9999 SCT023 SCT032 OVC050 16/11 Q1020 WHT
11:35 pm
V
61 °F 6¼ mi+ 3.200 ft 240° 240° 13 kt METAR EHVK 262135Z AUTO 24013KT 210V280 9999 SCT022 BKN032 BKN038 16/11 Q1020 WHT
11:25 pm
V
61 °F 6¼ mi+ 4.500 ft 240° 240° 13 - 23 kt METAR EHVK 262125Z AUTO 24013G23KT 200V280 9999 FEW023 BKN045 OVC053 16/11 Q1020 BLU
11:12 pm
V
61 °F 6¼ mi+ 5.400 ft 240° 240° 13 kt METAR EHVK 262112Z AUTO 24013KT 210V280 9999 FEW023 SCT034 OVC054 16/11 Q1020 BLU
11:05 pm
M
61 °F 6¼ mi+ 2.300 ft 240° 240° 14 kt METAR EHVK 262105Z AUTO 24014KT 200V270 9999 BKN023 BKN035 BKN042 16/11 Q1020 WHT
11:00 pm
V
61 °F 6¼ mi+ 3.600 ft 240° 240° 14 kt METAR EHVK 262100Z AUTO 24014KT 210V280 9999 SCT024/// BKN036/// BKN040/// 16/11 Q1020 WHT RMK TS INFO NOT AVBL
10:55 pm
V
61 °F 6¼ mi+ 5.100 ft 240° 240° 12 kt METAR EHVK 262055Z AUTO 24012KT 200V280 9999 FEW026/// SCT036/// OVC051/// 16/11 Q1020 BLU RMK TS INFO NOT AVBL
10:25 pm
V
63 °F 6¼ mi+ 5.300 ft 240° 240° 16 kt METAR EHVK 262025Z AUTO 24016KT 220V290 9999 FEW028/// OVC053/// 17/11 Q1020 BLU RMK TS INFO NOT AVBL
9:55 pm
V
63 °F 6¼ mi+ 5.000 ft 250° 250° 14 kt METAR EHVK 261955Z AUTO 25014KT 210V290 9999 OVC050/// 17/11 Q1020 BLU RMK TS INFO NOT AVBL
9:25 pm
V
63 °F 6¼ mi+ 4.800 ft 250° 250° 13 kt METAR EHVK 261925Z AUTO 25013KT 210V280 9999 OVC048/// 17/11 Q1019 BLU RMK TS INFO NOT AVBL
8:55 pm
V
64 °F 6¼ mi+ 3.600 ft 250° 250° 12 kt METAR EHVK 261855Z AUTO 25012KT 220V300 9999 FEW030/// OVC036/// 18/11 Q1019 BLU RMK TS INFO NOT AVBL
8:25 pm
V
64 °F 6¼ mi+ 3.300 ft 270° 270° 9 kt METAR EHVK 261825Z AUTO 27009KT 230V320 9999 SCT028/// BKN033/// OVC037/// 18/12 Q1020 BLU RMK TS INFO NOT AVBL
7:55 pm
V
66 °F 6¼ mi+ 3.500 ft 250° 250° 11 kt METAR EHVK 261755Z AUTO 25011KT 220V290 9999 OVC035/// 19/11 Q1019 BLU RMK TS INFO NOT AVBL
7:25 pm
V
66 °F 6¼ mi+ 3.600 ft 240° 240° 12 kt METAR EHVK 261725Z AUTO 24012KT 210V280 9999 OVC036/// 19/11 Q1019 BLU RMK TS INFO NOT AVBL
6:55 pm
V
66 °F 6¼ mi+ 3.900 ft 250° 250° 14 kt METAR EHVK 261655Z AUTO 25014KT 200V280 9999 BKN039/// OVC044/// 19/11 Q1019 BLU RMK TS INFO NOT AVBL
6:25 pm
V
68 °F 6¼ mi+ 4.400 ft 240° 240° 12 kt METAR EHVK 261625Z AUTO 24012KT 200V290 9999 SCT039/// OVC044/// 20/11 Q1019 BLU RMK TS INFO NOT AVBL
5:55 pm
V
68 °F 6¼ mi+ 4.000 ft 240° 240° 17 kt METAR EHVK 261555Z AUTO 24017KT 200V280 9999 BKN040/// OVC045/// 20/10 Q1019 BLU RMK TS INFO NOT AVBL
5:25 pm
V
68 °F 6¼ mi+ 4.000 ft 240° 240° 16 kt METAR EHVK 261525Z AUTO 24016KT 210V280 9999 BKN040/// OVC045/// 20/10 Q1020 BLU RMK TS INFO NOT AVBL
4:55 pm
V
68 °F 6¼ mi+ 4.500 ft 250° 250° 14 kt METAR EHVK 261455Z AUTO 25014KT 220V300 9999 SCT040/// BKN045/// OVC049/// 20/10 Q1020 BLU RMK TS INFO NOT AVBL
4:25 pm
V
68 °F 6¼ mi+ 4.400 ft 250° 250° 13 kt METAR EHVK 261425Z AUTO 25013KT 210V280 9999 BKN044/// BKN049/// OVC073/// 20/10 Q1020 BLU RMK TS INFO NOT AVBL
3:55 pm
V
68 °F 6¼ mi+ 4.400 ft 230° 230° 14 kt METAR EHVK 261355Z AUTO 23014KT 190V260 9999 SCT037/// BKN044/// OVC049/// 20/10 Q1020 BLU RMK TS INFO NOT AVBL
3:25 pm
V
68 °F 6¼ mi+ 3.800 ft 230° 230° 15 kt METAR EHVK 261325Z AUTO 23015KT 190V270 9999 BKN038/// BKN044/// 20/10 Q1020 BLU RMK TS INFO NOT AVBL
2:55 pm
V
68 °F 6¼ mi+ 4.100 ft 250° 250° 12 kt METAR EHVK 261255Z AUTO 25012KT 200V290 9999 SCT036/// BKN041/// BKN047/// 20/10 Q1021 BLU RMK TS INFO NOT AVBL
2:25 pm
V
66 °F 6¼ mi+ 3.600 ft 230° 230° 14 kt METAR EHVK 261225Z AUTO 23014KT 180V280 9999 BKN036/// OVC041/// 19/10 Q1021 BLU RMK TS INFO NOT AVBL
1:55 pm
V
68 °F 6¼ mi+ 4.800 ft 240° 240° 15 kt METAR EHVK 261155Z AUTO 24015KT 210V280 9999 FEW035 SCT042 BKN048 20/11 Q1021 BLU
1:25 pm
V
66 °F 6¼ mi+ 4.300 ft 250° 250° 11 kt METAR EHVK 261125Z AUTO 25011KT 210V300 9999 SCT038 BKN043 BKN048 19/10 Q1021 BLU
12:55 pm
V
68 °F 6¼ mi+ 4.900 ft 250° 250° 13 kt METAR EHVK 261055Z AUTO 25013KT 200V310 9999 FEW036 SCT040 BKN049 20/10 Q1021 BLU
12:25 pm
V
66 °F 6¼ mi+ 5.300 ft 240° 240° 13 kt METAR EHVK 261025Z AUTO 24013KT 200V300 9999 SCT031 SCT036 BKN053 19/11 Q1021 BLU
11:55 am
V
66 °F 6¼ mi+ 3.700 ft 240° 240° 15 kt METAR EHVK 260955Z AUTO 24015KT 200V300 9999 SCT031 BKN037 BKN046 19/10 Q1021 BLU
11:25 am
V
64 °F 6¼ mi+ - 240° 240° 13 kt METAR EHVK 260925Z AUTO 24013KT 210V290 9999 SCT028 SCT051 18/11 Q1021 BLU
11:06 am
M
64 °F 6¼ mi+ 2.800 ft 240° 240° 14 kt METAR EHVK 260906Z AUTO 24014KT 200V270 9999 FEW024 BKN028 BKN032 18/11 Q1020 BLU
10:56 am
M
64 °F 6¼ mi+ 2.300 ft 230° 230° 14 kt METAR EHVK 260856Z AUTO 23014KT 190V270 9999 BKN023 BKN027 BKN031 18/11 Q1020 WHT
10:55 am
M
64 °F 6¼ mi+ 2.600 ft 230° 230° 13 kt METAR EHVK 260855Z AUTO 23013KT 190V270 9999 SCT023 BKN026 BKN032 18/11 Q1020 WHT
10:33 am
V
63 °F 6¼ mi+ 5.900 ft 250° 250° 11 kt METAR EHVK 260833Z AUTO 25011KT 210V290 9999 SCT052 BKN059 BKN380 17/11 Q1020 BLU
10:29 am
V
64 °F 6¼ mi+ - 240° 240° 11 kt METAR EHVK 260829Z AUTO 24011KT 200V290 9999 SCT022 SCT057 18/11 Q1020 WHT
10:25 am
V
63 °F 6¼ mi+ - 240° 240° 11 kt METAR EHVK 260825Z AUTO 24011KT 200V280 9999 FEW022 17/11 Q1020 BLU
10:21 am
V
63 °F 6¼ mi+ - 240° 240° 11 kt METAR EHVK 260821Z AUTO 24011KT 210V290 9999 SCT021 SCT024 17/11 Q1020 WHT
10:15 am
V
61 °F 6¼ mi+ 3.800 ft 250° 250° 11 kt METAR EHVK 260815Z AUTO 25011KT 220V290 9999 SCT021 SCT027 BKN038 16/11 Q1020 WHT
10:11 am
V
63 °F 6¼ mi+ 3.800 ft 260° 260° 10 kt METAR EHVK 260811Z AUTO 26010KT 220V300 9999 FEW021 SCT027 BKN038 17/11 Q1020 BLU
9:55 am
M
63 °F 6¼ mi+ 2.300 ft 240° 240° 11 kt METAR EHVK 260755Z AUTO 24011KT 200V290 9999 SCT019 BKN023 BKN037 17/12 Q1020 WHT
9:33 am
V
63 °F 6¼ mi+ - 250° 250° 11 kt METAR EHVK 260733Z AUTO 25011KT 210V310 9999 FEW017 17/12 Q1020 BLU
9:25 am
V
63 °F 6¼ mi+ - 250° 250° 11 kt METAR EHVK 260725Z AUTO 25011KT 210V290 9999 SCT016 SCT020 17/12 Q1020 WHT
9:05 am
V
61 °F 6¼ mi+ - 250° 250° 11 kt METAR EHVK 260705Z AUTO 25011KT 230V300 9999 FEW014 SCT016 16/12 Q1020 WHT
8:55 am
M
61 °F 6¼ mi+ 1.400 ft 250° 250° 9 kt METAR EHVK 260655Z AUTO 25009KT 220V290 9999 BKN014 BKN016 16/12 Q1019 GRN
8:25 am
M
59 °F 6¼ mi+ 1.200 ft 240° 240° 9 kt METAR EHVK 260625Z AUTO 24009KT 220V290 9999 BKN012 BKN015 OVC063 15/12 Q1019 GRN
8:10 am
M
59 °F 6¼ mi+ 1.500 ft 240° 240° 9 kt METAR EHVK 260610Z AUTO 24009KT 210V270 9999 SCT012 BKN015 OVC064 15/12 Q1019 GRN
8:06 am
V
59 °F 6¼ mi+ 6.400 ft 240° 240° 10 kt METAR EHVK 260606Z AUTO 24010KT 210V280 9999 FEW012 SCT014 OVC064 15/12 Q1019 GRN
7:59 am
V
59 °F 6¼ mi+ 6.400 ft 250° 250° 9 kt METAR EHVK 260559Z AUTO 25009KT 210V280 9999 SCT012 OVC064 15/12 Q1019 GRN
7:55 am
V
59 °F 6¼ mi+ 6.400 ft 250° 250° 9 kt METAR EHVK 260555Z AUTO 25009KT 210V280 9999 FEW013 OVC064 15/12 Q1019 BLU
7:39 am
V
59 °F 6¼ mi+ 6.400 ft 250° 250° 10 kt METAR EHVK 260539Z AUTO 25010KT 220V280 9999 FEW012 SCT042 OVC064 15/12 Q1019 BLU
7:34 am
M
57 °F 6¼ mi+ 1.200 ft 250° 250° 9 kt METAR EHVK 260534Z AUTO 25009KT 220V280 9999 BKN012 BKN042 OVC065 14/12 Q1019 GRN
7:27 am
V
57 °F 6¼ mi+ 6.600 ft 250° 250° 9 kt METAR EHVK 260527Z AUTO 25009KT 220V280 9999 SCT012 OVC066 14/12 Q1019 GRN
7:25 am
V
57 °F 6¼ mi+ 6.600 ft 250° 250° 9 kt METAR EHVK 260525Z AUTO 25009KT 210V280 9999 SCT013 OVC066 14/12 Q1019 GRN
7:04 am
M
57 °F 6¼ mi+ 1.400 ft 240° 240° 9 kt METAR EHVK 260504Z AUTO 24009KT 220V280 9999 SCT012 BKN014 BKN017 14/12 Q1018 GRN
7:01 am
V
57 °F 6¼ mi+ 6.800 ft 240° 240° 9 kt METAR EHVK 260501Z AUTO 24009KT 210V280 9999 FEW012 SCT015 BKN068 14/11 Q1018 WHT
6:55 am
M
57 °F 6¼ mi+ 1.400 ft 240° 240° 9 kt METAR EHVK 260455Z AUTO 24009KT 210V270 9999 SCT012 BKN014 BKN017 14/11 Q1018 GRN
6:42 am
M
57 °F 6¼ mi+ 1.400 ft 240° 240° 9 kt METAR EHVK 260442Z AUTO 24009KT 200V280 9999 BKN014 OVC016 14/12 Q1018 GRN
6:38 am
M
57 °F 6¼ mi+ 1.600 ft 240° 240° 9 kt METAR EHVK 260438Z AUTO 24009KT 210V290 9999 SCT013 BKN016 OVC042 14/12 Q1018 GRN
6:37 am
M
57 °F 6¼ mi+ 1.600 ft 250° 250° 8 kt METAR EHVK 260437Z AUTO 25008KT 220V290 9999 FEW013 BKN016 BKN040 14/12 Q1018 WHT
6:29 am
V
57 °F 6¼ mi+ 7.100 ft 250° 250° 9 kt METAR EHVK 260429Z AUTO 25009KT 210V270 9999 FEW013 SCT016 OVC071 14/11 Q1018 WHT
6:25 am
M
57 °F 6¼ mi+ 1.300 ft 250° 250° 9 kt METAR EHVK 260425Z AUTO 25009KT 210V270 9999 BKN013 BKN039 OVC069 14/11 Q1018 GRN
6:14 am
M
57 °F 6¼ mi+ 1.300 ft 250° 250° 8 kt METAR EHVK 260414Z AUTO 25008KT 210V270 9999 BKN013 OVC015 14/12 Q1018 GRN
6:13 am
M
57 °F 6¼ mi+ 1.500 ft 250° 250° 8 kt METAR EHVK 260413Z AUTO 25008KT 210V270 9999 SCT013 OVC015 14/12 Q1018 GRN
6:08 am
M
57 °F 6¼ mi+ 1.500 ft 250° 250° 9 kt METAR EHVK 260408Z AUTO 25009KT 200V290 9999 FEW013 BKN015 BKN042 14/12 Q1018 WHT
5:55 am
M
57 °F 6¼ mi+ 1.400 ft 240° 240° 9 kt METAR EHVK 260355Z AUTO 24009KT 220V280 9999 BKN014 OVC017 14/12 Q1018 GRN
5:37 am
V
57 °F 6¼ mi+ 4.300 ft 240° 240° 8 kt METAR EHVK 260337Z AUTO 24008KT 210V270 9999 FEW013 SCT015 OVC043 14/12 Q1018 WHT
5:30 am
M
57 °F 6¼ mi+ 1.400 ft 240° 240° 8 kt METAR EHVK 260330Z AUTO 24008KT 220V280 9999 BKN014 OVC016 14/12 Q1018 GRN
5:29 am
M
57 °F 6¼ mi+ 1.600 ft 240° 240° 9 kt METAR EHVK 260329Z AUTO 24009KT 210V280 9999 SCT014 OVC016 14/12 Q1018 GRN
5:25 am
M
57 °F 6¼ mi+ 1.600 ft 240° 240° 9 kt METAR EHVK 260325Z AUTO 24009KT 210V290 9999 SCT014 OVC016 14/12 Q1018 GRN
5:17 am
M
57 °F 6¼ mi+ 1.600 ft 240° 240° 9 kt METAR EHVK 260317Z AUTO 24009KT 210V290 9999 SCT014 OVC016 14/11 Q1018 GRN
5:12 am
M
57 °F 6¼ mi+ 1.500 ft 240° 240° 9 kt METAR EHVK 260312Z AUTO 24009KT 210V270 9999 BKN015 BKN018 BKN059 14/12 Q1018 WHT
5:07 am
M
57 °F 6¼ mi+ 1.400 ft 250° 250° 9 kt METAR EHVK 260307Z AUTO 25009KT 210V270 9999 BKN014 OVC016 14/12 Q1017 GRN
5:01 am
M
57 °F 6¼ mi+ 1.500 ft 240° 240° 10 kt METAR EHVK 260301Z AUTO 24010KT 210V270 9999 OVC015 14/12 Q1017 WHT
4:55 am
M
57 °F 6¼ mi+ 1.500 ft 240° 240° 10 kt METAR EHVK 260255Z AUTO 24010KT 210V280 9999 OVC015 14/11 Q1017 WHT
4:25 am
M
59 °F 6¼ mi+ 1.500 ft 240° 240° 10 kt METAR EHVK 260225Z AUTO 24010KT 210V270 9999 BKN015 OVC018 15/11 Q1017 WHT
3:55 am
M
57 °F 6¼ mi+ 1.500 ft 240° 240° 10 kt METAR EHVK 260155Z AUTO 24010KT 210V270 9999 BKN015 BKN020 OVC023 14/11 Q1017 WHT
3:25 am
M
57 °F 6¼ mi+ 1.500 ft 230° 230° 11 kt METAR EHVK 260125Z AUTO 23011KT 200V270 9999 BKN015 BKN019 OVC022 14/11 Q1017 WHT
2:55 am
M
57 °F 6¼ mi+ 1.500 ft 240° 240° 10 kt METAR EHVK 260055Z AUTO 24010KT 220V280 9999 OVC015 14/11 Q1017 WHT
2:25 am
M
57 °F 6¼ mi+ 1.500 ft 230° 230° 12 kt METAR EHVK 260025Z AUTO 23012KT 210V270 9999 BKN015 OVC018 14/11 Q1017 WHT
1:55 am
M
57 °F 6¼ mi+ 1.500 ft 230° 230° 12 kt METAR EHVK 252355Z AUTO 23012KT 180V260 9999 BKN015 OVC019 14/11 Q1017 WHT
1:25 am
M
59 °F 6¼ mi+ 1.600 ft 230° 230° 11 kt METAR EHVK 252325Z AUTO 23011KT 200V260 9999 OVC016 15/11 Q1017 WHT
12:55 am
M
59 °F 6¼ mi+ 1.800 ft 230° 230° 12 kt METAR EHVK 252255Z AUTO 23012KT 200V270 9999 OVC018 15/11 Q1017 WHT
12:25 am
M
59 °F 6¼ mi+ 1.800 ft 240° 240° 13 kt METAR EHVK 252225Z AUTO 24013KT 200V270 9999 OVC018 15/11 Q1017 WHT

25 maja 2022

Czas Kod Pogoda Temp. Widoczność Sufit Wiatr METAR/SPECI
11:55 pm
M
59 °F 6¼ mi+ 2.300 ft 230° 230° 9 kt METAR EHVK 252155Z AUTO 23009KT 200V260 9999 OVC023 15/10 Q1016 WHT
11:25 pm
M
59 °F 6¼ mi+ 2.300 ft 230° 230° 12 kt METAR EHVK 252125Z AUTO 23012KT 9999 OVC023 15/10 Q1016 WHT
11:19 pm
M
59 °F 6¼ mi+ 2.400 ft 230° 230° 12 kt METAR EHVK 252119Z AUTO 23012KT 200V260 9999 OVC024 15/10 Q1016 WHT
11:15 pm
M
59 °F 6¼ mi+ 2.500 ft 230° 230° 12 kt METAR EHVK 252115Z AUTO 23012KT 200V260 9999 OVC025 15/10 Q1016 BLU
10:55 pm
M
59 °F 6¼ mi+ 2.900 ft 230° 230° 13 kt METAR EHVK 252055Z AUTO 23013KT 200V270 9999 SCT025 BKN029 OVC033 15/09 Q1016 BLU
10:25 pm
M
57 °F 6¼ mi+ 2.700 ft 230° 230° 9 kt METAR EHVK 252025Z AUTO 23009KT 9999 BKN027 OVC030 14/09 Q1016 BLU
9:55 pm
V
57 °F 6¼ mi+ 3.000 ft 230° 230° 11 kt METAR EHVK 251955Z AUTO 23011KT 200V270 9999 OVC030 14/09 Q1016 BLU
9:25 pm
V
59 °F 6¼ mi+ 3.100 ft 230° 230° 17 kt METAR EHVK 251925Z AUTO 23017KT 200V270 9999 SCT028 BKN031 OVC035 15/09 Q1016 BLU
8:55 pm
V
61 °F 6¼ mi+ 3.700 ft 240° 240° 17 kt METAR EHVK 251855Z AUTO 24017KT 210V290 9999 OVC037 16/08 Q1015 BLU
8:25 pm
V
61 °F 6¼ mi+ 4.200 ft 240° 240° 12 - 24 kt METAR EHVK 251825Z AUTO 24012G24KT 190V280 9999 FEW036 OVC042 16/07 Q1015 BLU
7:55 pm
V
61 °F 6¼ mi+ 4.200 ft 240° 240° 12 kt METAR EHVK 251755Z AUTO 24012KT 210V280 9999 OVC042 16/07 Q1015 BLU
7:25 pm
V
63 °F 6¼ mi+ 4.600 ft 240° 240° 14 kt METAR EHVK 251725Z AUTO 24014KT 200V280 9999 SCT041 BKN046 OVC050 17/07 Q1015 BLU
6:55 pm
V
63 °F 6¼ mi+ 5.200 ft 240° 240° 15 kt METAR EHVK 251655Z AUTO 24015KT 210V280 9999 FEW045 BKN052 OVC058 17/07 Q1015 BLU
6:25 pm
V
63 °F 6¼ mi+ 5.200 ft 250° 250° 13 kt METAR EHVK 251625Z AUTO 25013KT 220V280 9999 FEW048 BKN052 OVC057 17/07 Q1015 BLU
5:55 pm
V
64 °F 6¼ mi+ 7.600 ft 240° 240° 13 kt METAR EHVK 251555Z AUTO 24013KT 200V310 9999 FEW051 SCT070 OVC076 18/07 Q1015 BLU
5:25 pm
V
64 °F 6¼ mi+ 8.000 ft 230° 230° 17 kt METAR EHVK 251525Z AUTO 23017KT 180V280 9999 FEW048 SCT057 OVC080 18/07 Q1014 BLU
4:55 pm
V
64 °F 6¼ mi+ 7.700 ft 230° 230° 16 kt METAR EHVK 251455Z AUTO 23016KT 200V270 9999 FEW068 BKN077 BKN083 18/07 Q1014 BLU
Starsze dane

Pobierz naszą aplikację

Łatwy dostęp do całej pogody lotniczej na telefonie komórkowym i tablecie.
Z wieloma funkcjami niedostępnymi na stronie internetowej, takimi jak wsparcie offline i osobista lista lotnisk.

My i osoby trzecie śledzimy twoje zachowanie w internecie na naszej stronie za pomocą plików cookie. Jeśli kontynuujesz, zakładamy, że zgadzasz się z naszą polityką plików cookie. Dowiedz się więcej